Time;durP1;ratioP1;P1;durP2;ratioP2;P2;SDS_P1;SDS_P2;PMS_P1;PMS_P2;Temp;Humidity;BMP_temperature;BMP_pressure;BME280_temperature;BME280_humidity;BME280_pressure;Samples;Min_cycle;Max_cycle;Signal;HPM_P1;HPM_P2
2022/02/08 00:00:20;;;;;;;8.73;3.15;;;9.30;78.70;;;;;;5111760;28;20421;-79
2022/02/08 00:03:24;;;;;;;7.43;2.70;;;9.30;78.80;;;;;;5112513;28;20047;-78
2022/02/08 00:10:01;;;;;;;5.10;2.30;;;9.40;76.00;;;;;;5112516;28;20043;-80
2022/02/08 00:13:05;;;;;;;6.65;2.42;;;9.50;74.30;;;;;;5113371;28;20368;-79
2022/02/08 00:16:09;;;;;;;3.58;1.73;;;9.60;74.40;;;;;;5111878;28;20059;-79
2022/02/08 00:19:13;;;;;;;4.32;2.45;;;9.60;72.60;;;;;;5112376;28;20035;-80
2022/02/08 00:22:17;;;;;;;7.95;2.20;;;9.60;72.80;;;;;;5112103;28;20040;-80
2022/02/08 00:25:20;;;;;;;9.40;2.30;;;9.60;73.30;;;;;;5112235;28;20042;-80
2022/02/08 00:28:24;;;;;;;5.60;2.20;;;9.50;74.10;;;;;;5112022;28;20050;-79
2022/02/08 00:31:29;;;;;;;5.00;2.05;;;9.50;74.10;;;;;;5111666;28;20051;-79
2022/02/08 00:34:33;;;;;;;7.07;2.45;;;9.40;73.40;;;;;;5111959;28;20066;-79
2022/02/08 00:37:38;;;;;;;6.63;2.30;;;9.40;72.80;;;;;;5112091;28;20093;-79
2022/02/08 00:40:44;;;;;;;12.77;3.40;;;9.50;73.60;;;;;;5111600;28;20371;-79
2022/02/08 00:44:11;;;;;;;4.75;2.33;;;9.40;71.30;;;;;;5099698;28;20050;-80
2022/02/08 00:47:33;;;;;;;5.35;1.95;;;9.40;68.90;;;;;;5111121;28;20043;-79
2022/02/08 00:50:39;;;;;;;9.45;2.70;;;9.40;71.50;;;;;;5111295;28;20514;-79
2022/02/08 00:53:43;;;;;;;9.55;2.85;;;9.40;72.20;;;;;;5111151;28;20043;-80
2022/02/08 00:56:47;;;;;;;6.60;3.08;;;9.30;73.50;;;;;;5099550;28;20044;-79
2022/02/08 00:59:51;;;;;;;8.57;3.10;;;9.20;74.40;;;;;;5110994;28;20035;-79
2022/02/08 01:02:58;;;;;;;7.95;2.75;;;9.00;73.70;;;;;;5110538;28;20036;-79
2022/02/08 01:06:07;;;;;;;10.43;3.35;;;8.80;75.00;;;;;;5111638;28;20031;-80
2022/02/08 01:09:19;;;;;;;12.10;2.72;;;8.70;76.50;;;;;;5110807;28;20101;-80
2022/02/08 01:12:25;;;;;;;7.70;2.40;;;8.70;75.00;;;;;;5111505;28;20046;-80
2022/02/08 01:15:30;;;;;;;8.48;2.28;;;8.60;77.50;;;;;;5098657;28;20046;-80
2022/02/08 01:18:39;;;;;;;6.18;1.80;;;8.50;77.30;;;;;;5110535;28;20036;-80
2022/02/08 01:21:43;;;;;;;5.70;2.08;;;8.50;73.70;;;;;;5111715;28;20046;-80
2022/02/08 01:24:49;;;;;;;4.53;2.00;;;8.70;72.80;;;;;;5111173;28;20046;-80
2022/02/08 01:27:55;;;;;;;10.82;2.85;;;8.90;71.00;;;;;;5113117;28;20042;-80
2022/02/08 01:31:03;;;;;;;5.15;1.90;;;9.00;72.40;;;;;;5114598;28;20038;-81
2022/02/08 01:34:25;;;;;;;9.23;2.30;;;9.10;70.60;;;;;;5114392;28;20044;-80
2022/02/08 01:37:55;;;;;;;6.47;1.83;;;9.20;70.10;;;;;;5115409;28;20051;-80
2022/02/08 01:48:00;;;;;;;8.07;2.30;;;9.00;71.00;;;;;;5113938;28;20043;-79
2022/02/08 01:50:55;;;;;;;7.80;2.78;;;9.00;71.60;;;;;;5102436;28;20043;-80
2022/02/08 01:54:00;;;;;;;9.95;3.28;;;8.70;73.80;;;;;;5114098;28;20039;-79
2022/02/08 01:57:06;;;;;;;10.10;2.65;;;8.70;75.50;;;;;;5114006;28;20039;-81
2022/02/08 02:00:11;;;;;;;5.55;2.50;;;8.70;74.80;;;;;;5102490;28;20039;-80
2022/02/08 02:03:22;;;;;;;8.40;2.42;;;8.60;75.20;;;;;;5113820;28;20043;-80
2022/02/08 02:06:27;;;;;;;5.95;2.35;;;8.50;75.10;;;;;;5114006;28;20043;-81
2022/02/08 02:09:33;;;;;;;13.70;2.88;;;8.50;74.80;;;;;;5113874;28;20050;-80
2022/02/08 02:13:10;;;;;;;9.88;2.85;;;8.40;74.80;;;;;;5113698;28;20051;-80
2022/02/08 02:16:31;;;;;;;7.50;2.22;;;8.20;75.10;;;;;;5113361;28;20058;-81
2022/02/08 02:19:36;;;;;;;6.75;2.13;;;8.20;75.80;;;;;;5113806;28;20048;-80
2022/02/08 02:22:42;;;;;;;6.30;2.13;;;8.20;75.40;;;;;;5113589;28;20048;-79
2022/02/08 02:25:46;;;;;;;6.68;2.05;;;8.30;73.30;;;;;;5113656;28;20032;-80
2022/02/08 02:28:50;;;;;;;7.00;1.85;;;8.40;72.50;;;;;;5114351;28;20043;-81
2022/02/08 02:31:55;;;;;;;8.45;1.60;;;8.50;71.70;;;;;;5113995;28;20183;-80
2022/02/08 02:35:00;;;;;;;3.20;1.50;;;8.60;68.10;;;;;;5112972;28;20058;-80
2022/02/08 02:38:06;;;;;;;7.00;1.10;;;8.70;68.30;;;;;;5113239;28;20043;-79
2022/02/08 02:41:13;;;;;;;4.22;1.13;;;8.90;64.50;;;;;;5101948;28;20046;-79
2022/02/08 02:44:21;;;;;;;4.72;1.10;;;9.10;65.80;;;;;;5101379;28;20079;-80
2022/02/08 02:47:25;;;;;;;5.38;1.33;;;9.20;66.30;;;;;;5113843;28;20403;-79
2022/02/08 02:50:30;;;;;;;4.68;1.20;;;9.20;65.80;;;;;;5112773;28;20044;-80
2022/02/08 02:53:34;;;;;;;3.80;1.13;;;9.20;64.10;;;;;;5113828;28;20032;-79
2022/02/08 02:56:46;;;;;;;5.85;1.70;;;9.30;65.20;;;;;;5101357;28;20043;-80
2022/02/08 03:00:00;;;;;;;3.88;1.05;;;9.40;64.80;;;;;;5113029;28;20047;-80
2022/02/08 03:19:26;;;;;;;4.95;0.98;;;9.20;66.70;;;;;;5112108;28;20067;-80
2022/02/08 03:22:30;;;;;;;5.75;1.40;;;9.10;66.90;;;;;;5113221;28;20031;-80
2022/02/08 03:25:35;;;;;;;3.55;1.10;;;9.10;67.60;;;;;;5112350;28;20047;-80
2022/02/08 03:28:48;;;;;;;6.82;1.15;;;9.10;66.70;;;;;;5112128;28;20036;-80
2022/02/08 03:32:01;;;;;;;9.75;2.50;;;9.00;67.60;;;;;;5111701;28;20050;-81
2022/02/08 03:35:08;;;;;;;4.85;1.20;;;9.00;67.70;;;;;;5100153;28;20056;-80
2022/02/08 03:38:15;;;;;;;5.65;1.55;;;8.90;68.50;;;;;;5100114;28;20503;-80
2022/02/08 03:41:23;;;;;;;7.00;1.40;;;8.90;67.90;;;;;;5112089;28;20497;-78
2022/02/08 03:44:31;;;;;;;3.30;1.98;;;8.90;68.10;;;;;;5111946;28;20504;-80
2022/02/08 03:47:37;;;;;;;6.63;2.10;;;8.80;67.90;;;;;;5111654;28;20399;-79
2022/02/08 03:50:44;;;;;;;7.05;2.15;;;8.80;68.30;;;;;;5110898;28;20052;-80
2022/02/08 03:53:48;;;;;;;5.57;2.28;;;8.80;67.50;;;;;;5111485;28;20039;-80
2022/02/08 03:56:56;;;;;;;5.60;2.38;;;8.80;68.00;;;;;;5111846;28;20043;-80
2022/02/08 04:00:00;;;;;;;4.97;1.85;;;8.70;67.70;;;;;;5112668;28;20040;-80
2022/02/08 04:03:04;;;;;;;5.53;1.77;;;8.70;67.60;;;;;;5111378;28;20066;-80
2022/02/08 04:06:08;;;;;;;4.13;1.77;;;8.70;68.50;;;;;;5112107;28;20047;-80
2022/02/08 04:09:12;;;;;;;11.20;1.95;;;8.70;68.60;;;;;;5112257;28;20042;-80
2022/02/08 04:12:23;;;;;;;6.88;2.10;;;8.60;69.60;;;;;;5112219;28;20645;-80
2022/02/08 04:41:20;;;;;;;4.82;2.10;;;8.30;73.50;;;;;;5111807;28;20038;-80
2022/02/08 04:44:33;;;;;;;7.65;2.08;;;8.20;74.30;;;;;;5111619;28;20050;-80
2022/02/08 04:47:46;;;;;;;9.15;1.98;;;8.10;74.60;;;;;;5111619;28;20537;-80
2022/02/08 04:50:54;;;;;;;10.68;2.67;;;8.00;73.30;;;;;;5111769;28;20044;-80
2022/02/08 04:54:22;;;;;;;7.65;2.40;;;7.90;74.10;;;;;;5111441;28;20046;-80
2022/02/08 05:00:44;;;;;;;10.05;3.13;;;7.90;76.10;;;;;;5111859;28;20036;-80
2022/02/08 05:28:37;;;;;;;23.67;4.22;;;7.60;74.70;;;;;;5118236;28;20044;-79
2022/02/08 05:47:29;;;;;;;33.28;19.23;;;7.70;73.60;;;;;;5117627;28;20059;-78
2022/02/08 05:50:44;;;;;;;24.58;12.23;;;7.60;73.90;;;;;;5117892;28;20043;-78
2022/02/08 05:53:48;;;;;;;13.38;7.65;;;7.70;73.80;;;;;;5117805;28;20475;-78
2022/02/08 05:56:54;;;;;;;8.13;4.50;;;7.70;72.80;;;;;;5117741;28;20054;-78
2022/02/08 05:59:58;;;;;;;16.27;4.90;;;7.60;71.40;;;;;;5117727;28;20038;-78
2022/02/08 06:03:05;;;;;;;8.98;4.55;;;7.60;73.30;;;;;;5117357;28;20047;-80
2022/02/08 06:06:19;;;;;;;11.13;5.00;;;7.60;68.80;;;;;;5105266;28;20039;-80
2022/02/08 06:09:24;;;;;;;17.40;5.22;;;7.80;68.80;;;;;;5116866;28;20047;-80
2022/02/08 06:12:29;;;;;;;8.38;4.43;;;7.80;69.30;;;;;;5116600;28;20560;-80
2022/02/08 06:15:44;;;;;;;8.90;4.10;;;7.90;68.90;;;;;;5101004;28;20047;-80
2022/02/08 06:18:49;;;;;;;8.63;4.95;;;7.70;69.50;;;;;;5113367;28;20036;-79
2022/02/08 06:21:53;;;;;;;14.07;5.47;;;7.70;71.60;;;;;;5113416;28;20043;-77
2022/02/08 06:24:57;;;;;;;11.20;4.38;;;7.70;70.80;;;;;;5113558;28;20039;-77
2022/02/08 06:28:01;;;;;;;5.18;0.90;;;7.80;69.80;;;;;;5113523;28;20042;-77
2022/02/08 06:31:05;;;;;;;3.50;1.05;;;8.10;64.30;;;;;;5113774;28;20035;-76
2022/02/08 06:34:12;;;;;;;7.47;2.40;;;8.50;65.40;;;;;;5101469;28;20514;-77
2022/02/08 06:37:20;;;;;;;7.70;3.20;;;8.70;65.70;;;;;;5101525;28;20035;-77
2022/02/08 06:40:24;;;;;;;10.48;3.38;;;8.70;66.00;;;;;;5113137;28;20044;-77
2022/02/08 06:43:30;;;;;;;8.55;3.40;;;8.70;67.60;;;;;;5113157;28;20058;-77
2022/02/08 06:46:34;;;;;;;8.73;3.65;;;8.60;66.20;;;;;;5113072;28;20040;-77
2022/02/08 06:49:39;;;;;;;8.23;2.45;;;8.50;66.70;;;;;;5112988;28;20054;-77
2022/02/08 06:52:43;;;;;;;5.03;1.92;;;8.60;66.40;;;;;;5112679;28;20040;-78
2022/02/08 06:55:47;;;;;;;9.20;1.95;;;8.60;64.80;;;;;;5113351;28;20047;-78
2022/02/08 06:59:02;;;;;;;29.15;2.55;;;8.70;64.10;;;;;;5113716;28;20036;-77
2022/02/08 07:02:06;;;;;;;2.75;1.00;;;8.90;65.40;;;;;;5113791;28;20395;-78
2022/02/08 07:05:10;;;;;;;4.40;1.38;;;9.10;62.80;;;;;;5112711;28;20050;-81
2022/02/08 07:08:14;;;;;;;3.30;1.00;;;9.30;64.10;;;;;;5112650;28;20552;-79
2022/02/08 07:11:22;;;;;;;4.65;1.23;;;9.30;60.50;;;;;;5100612;28;20048;-78
2022/02/08 07:14:31;;;;;;;3.95;1.15;;;9.50;60.90;;;;;;5112395;28;20051;-79
2022/02/08 07:17:35;;;;;;;1.83;1.10;;;9.60;60.40;;;;;;5100428;28;20036;-81
2022/02/08 07:20:40;;;;;;;15.45;1.35;;;9.70;61.60;;;;;;5112229;28;20047;-75
2022/02/08 07:23:44;;;;;;;7.60;1.50;;;9.80;61.60;;;;;;5113084;28;20141;-73
2022/02/08 07:26:52;;;;;;;3.85;1.25;;;9.80;63.60;;;;;;5112158;28;20032;-77
2022/02/08 07:29:56;;;;;;;4.22;1.20;;;9.90;60.10;;;;;;5113004;28;20031;-71
2022/02/08 07:33:00;;;;;;;3.45;1.10;;;10.20;59.60;;;;;;5112403;28;20403;-80
2022/02/08 07:39:38;;;;;;;12.25;1.55;;;10.60;60.00;;;;;;5112555;28;20058;-75
2022/02/08 07:42:42;;;;;;;6.03;1.20;;;10.80;60.60;;;;;;5112829;28;20390;-74
2022/02/08 07:45:46;;;;;;;6.53;1.13;;;11.00;60.20;;;;;;5111796;28;20043;-75
2022/02/08 07:48:50;;;;;;;4.88;1.20;;;11.10;57.30;;;;;;5111316;28;20046;-79
2022/02/08 07:51:54;;;;;;;4.47;0.90;;;11.20;58.40;;;;;;5112886;28;20051;-79
2022/02/08 07:54:58;;;;;;;5.75;1.63;;;11.40;56.60;;;;;;5112129;28;20505;-77
2022/02/08 07:58:02;;;;;;;5.85;1.35;;;11.50;56.70;;;;;;5111665;28;20505;-77
2022/02/08 08:01:08;;;;;;;6.53;1.15;;;11.60;56.60;;;;;;5112325;28;20367;-78
2022/02/08 08:04:12;;;;;;;4.63;0.80;;;11.60;55.70;;;;;;5111746;28;20043;-77
2022/02/08 08:07:16;;;;;;;5.50;1.00;;;11.60;55.40;;;;;;5112181;28;20078;-77
2022/02/08 08:10:22;;;;;;;2.03;0.77;;;11.60;56.20;;;;;;5112311;28;20059;-77
2022/02/08 08:13:26;;;;;;;5.05;1.13;;;11.70;56.40;;;;;;5112110;28;20046;-77
2022/02/08 08:16:53;;;;;;;2.05;0.90;;;11.70;54.80;;;;;;5111836;28;20059;-77
2022/02/08 08:19:57;;;;;;;4.28;1.30;;;11.80;54.90;;;;;;5112018;28;20038;-77
2022/02/08 08:23:01;;;;;;;4.82;1.10;;;12.00;57.00;;;;;;5111853;28;20050;-76
2022/02/08 08:26:05;;;;;;;3.10;1.02;;;12.20;56.60;;;;;;5111779;28;20039;-78
2022/02/08 08:29:09;;;;;;;6.35;1.10;;;12.40;57.30;;;;;;5112098;28;20055;-74
2022/02/08 08:32:13;;;;;;;5.88;0.98;;;12.50;55.90;;;;;;5111918;28;20042;-80
2022/02/08 08:35:20;;;;;;;5.38;0.80;;;12.50;55.90;;;;;;5111869;28;20054;-71
2022/02/08 08:38:25;;;;;;;3.33;0.70;;;12.50;55.10;;;;;;5111108;28;20046;-75
2022/02/08 08:41:49;;;;;;;4.25;1.00;;;12.70;54.40;;;;;;5098747;28;20050;-76
2022/02/08 08:51:49;;;;;;;4.20;0.75;;;12.60;53.50;;;;;;5088526;28;20135;-76
2022/02/08 08:54:53;;;;;;;3.25;0.90;;;12.60;54.40;;;;;;5088755;28;20054;-73
2022/02/08 08:57:57;;;;;;;4.57;1.10;;;12.60;53.90;;;;;;5110679;28;20059;-75
2022/02/08 09:01:01;;;;;;;3.95;0.98;;;12.60;52.40;;;;;;5111352;28;20074;-75
2022/02/08 09:04:06;;;;;;;5.88;0.82;;;12.40;54.90;;;;;;5111728;28;20047;-77
2022/02/08 09:07:12;;;;;;;4.40;1.20;;;12.20;54.00;;;;;;5110996;28;20039;-76
2022/02/08 09:10:20;;;;;;;4.85;1.50;;;12.10;55.40;;;;;;5111433;28;20047;-76
2022/02/08 09:13:31;;;;;;;3.60;1.48;;;12.00;55.80;;;;;;5111358;28;20042;-76
2022/02/08 09:20:10;;;;;;;4.32;1.20;;;11.90;55.50;;;;;;5110216;28;20051;-74
2022/02/08 09:29:44;;;;;;;3.97;1.48;;;11.70;55.70;;;;;;5111663;28;20058;-72
2022/02/08 09:32:52;;;;;;;6.18;1.10;;;11.70;57.10;;;;;;5111115;28;20054;-72
2022/02/08 09:35:57;;;;;;;4.90;2.28;;;11.70;55.00;;;;;;5111031;28;20074;-78
2022/02/08 09:39:01;;;;;;;8.88;1.45;;;11.70;55.80;;;;;;5111065;28;20394;-72
2022/02/08 09:42:07;;;;;;;4.95;1.02;;;11.70;55.70;;;;;;5110787;28;20055;-71
2022/02/08 09:45:17;;;;;;;8.52;1.85;;;11.80;55.80;;;;;;5110618;28;20050;-71
2022/02/08 09:49:07;;;;;;;6.03;1.70;;;11.80;55.10;;;;;;5110366;28;20082;-71
2022/02/08 09:51:50;;;;;;;8.75;1.45;;;11.80;55.60;;;;;;5117641;28;20387;-73
2022/02/08 09:54:54;;;;;;;4.18;1.30;;;11.70;54.80;;;;;;5113762;28;20063;-74
2022/02/08 09:57:58;;;;;;;4.70;1.85;;;11.70;55.60;;;;;;5114598;28;20051;-75
2022/02/08 10:01:17;;;;;;;5.13;1.65;;;11.70;56.30;;;;;;5114566;28;20066;-72
2022/02/08 10:04:21;;;;;;;6.97;1.58;;;11.70;56.90;;;;;;5114839;28;20038;-71
2022/02/08 10:07:27;;;;;;;8.70;1.25;;;11.80;57.10;;;;;;5114605;28;20050;-72
2022/02/08 10:10:31;;;;;;;4.60;1.00;;;12.00;55.80;;;;;;5113615;28;20058;-74
2022/02/08 10:14:00;;;;;;;8.02;1.30;;;12.00;54.60;;;;;;5114235;28;20051;-74
2022/02/08 10:24:09;;;;;;;5.40;1.35;;;12.10;54.90;;;;;;5110940;28;20506;-69
2022/02/08 10:40:35;;;;;;;3.00;0.85;;;13.40;52.90;;;;;;5113546;28;20506;-76
2022/02/08 10:43:40;;;;;;;6.57;1.10;;;13.40;50.90;;;;;;5113498;28;20502;-73
2022/02/08 10:46:43;;;;;;;3.08;0.98;;;13.50;51.90;;;;;;5112809;28;20042;-75
2022/02/08 10:49:48;;;;;;;4.03;0.90;;;13.70;51.40;;;;;;5112795;28;20592;-74
2022/02/08 10:52:55;;;;;;;5.43;1.00;;;13.80;50.60;;;;;;5113191;28;20044;-73
2022/02/08 10:56:05;;;;;;;4.72;1.10;;;13.60;49.00;;;;;;5113284;28;20062;-75
2022/02/08 10:59:18;;;;;;;3.97;1.30;;;13.60;50.60;;;;;;5113507;28;20058;-73
2022/02/08 11:02:34;;;;;;;6.25;1.30;;;13.60;50.60;;;;;;5112260;28;20042;-74
2022/02/08 11:05:49;;;;;;;5.38;1.08;;;13.80;51.40;;;;;;5112754;28;20050;-73
2022/02/08 11:21:55;;;;;;;3.65;0.95;;;13.60;49.30;;;;;;5112805;28;20776;-70
2022/02/08 11:25:04;;;;;;;2.20;1.00;;;13.50;48.00;;;;;;5113287;28;20066;-71
2022/02/08 11:28:32;;;;;;;5.63;1.05;;;13.60;49.60;;;;;;5113182;28;20042;-73
2022/02/08 11:31:41;;;;;;;3.15;1.15;;;13.50;48.40;;;;;;5112893;28;20530;-71
2022/02/08 11:45:39;;;;;;;4.00;1.20;;;13.70;51.10;;;;;;5110818;28;20106;-77
2022/02/08 11:49:12;;;;;;;2.60;1.30;;;13.70;51.10;;;;;;5111724;28;20059;-77
2022/02/08 11:52:25;;;;;;;2.97;1.10;;;13.70;50.90;;;;;;5111890;28;20046;-74
2022/02/08 12:08:51;;;;;;;6.88;1.77;;;13.50;50.30;;;;;;5089861;28;20500;-75
2022/02/08 12:35:54;;;;;;;4.72;1.15;;;13.50;49.10;;;;;;5111940;28;20062;-77
2022/02/08 12:55:46;;;;;;;11.20;2.47;;;13.70;48.10;;;;;;5111506;28;20568;-75
2022/02/08 12:59:12;;;;;;;2.83;0.70;;;13.70;49.70;;;;;;5110944;28;20047;-81
2022/02/08 14:06:17;;;;;;;7.15;1.88;;;13.50;48.40;;;;;;5114415;28;20043;-74
2022/02/08 14:16:06;;;;;;;6.32;1.67;;;13.50;49.60;;;;;;5114469;28;20038;-73
2022/02/08 14:23:05;;;;;;;2.78;1.50;;;13.60;50.70;;;;;;5112654;28;20048;-73
2022/02/08 14:29:39;;;;;;;5.47;2.20;;;13.70;51.80;;;;;;5114515;28;20063;-79
2022/02/08 14:36:31;;;;;;;7.30;4.13;;;13.60;48.40;;;;;;5107220;28;20047;-79
2022/02/08 15:09:24;;;;;;;2.83;1.50;;;13.40;47.70;;;;;;5113626;28;20220;-76
2022/02/08 15:12:33;;;;;;;4.00;1.40;;;13.40;48.80;;;;;;5112449;28;20051;-77
2022/02/08 15:18:41;;;;;;;5.05;2.10;;;13.40;47.30;;;;;;5113342;28;20059;-77
2022/02/08 15:21:45;;;;;;;5.45;3.25;;;13.40;48.80;;;;;;5111285;28;20266;-72
2022/02/08 15:24:49;;;;;;;5.78;2.75;;;13.40;48.40;;;;;;5111188;28;20050;-71
2022/02/08 15:27:54;;;;;;;4.85;2.63;;;13.40;49.00;;;;;;5112212;28;20047;-72
2022/02/08 15:30:58;;;;;;;8.88;3.78;;;13.40;49.50;;;;;;5112941;28;20042;-74
2022/02/08 15:34:02;;;;;;;8.73;3.30;;;13.40;48.10;;;;;;5112980;28;20403;-74
2022/02/08 15:37:06;;;;;;;12.77;3.20;;;13.40;48.70;;;;;;5112020;28;20054;-75
2022/02/08 15:40:13;;;;;;;3.33;2.15;;;13.40;48.00;;;;;;5112644;28;20039;-77
2022/02/08 15:43:17;;;;;;;3.72;1.90;;;13.40;47.70;;;;;;5112853;28;20051;-78
2022/02/08 15:46:25;;;;;;;4.07;2.88;;;13.30;47.60;;;;;;5114538;28;20051;-73
2022/02/08 15:49:32;;;;;;;7.82;2.90;;;13.30;48.00;;;;;;5112601;28;20518;-76
2022/02/08 16:09:45;;;;;;;7.97;3.15;;;13.10;47.70;;;;;;5111983;28;20042;-79
2022/02/08 16:12:41;;;;;;;7.50;3.58;;;13.00;48.90;;;;;;5117067;28;20043;-76
2022/02/08 16:55:10;;;;;;;25.05;11.05;;;12.40;45.20;;;;;;5111216;28;20039;-75
2022/02/08 17:01:30;;;;;;;23.60;11.75;;;12.40;45.50;;;;;;5111331;28;20043;-74
2022/02/08 17:04:35;;;;;;;19.17;10.95;;;12.30;45.50;;;;;;5111298;28;20043;-74
2022/02/08 17:07:39;;;;;;;25.88;12.60;;;12.30;44.90;;;;;;5111229;28;20054;-70
2022/02/08 17:10:48;;;;;;;20.88;10.07;;;12.30;45.60;;;;;;5111217;28;20050;-77
2022/02/08 17:50:42;;;;;;;31.17;17.08;;;11.90;51.30;;;;;;5110575;28;20078;-73
2022/02/08 17:53:46;;;;;;;25.38;13.55;;;12.00;49.60;;;;;;5110919;28;20050;-73
2022/02/08 17:56:51;;;;;;;26.20;15.48;;;11.90;49.70;;;;;;5110516;28;20056;-72
2022/02/08 17:59:55;;;;;;;32.75;17.73;;;11.80;49.80;;;;;;5110375;28;20039;-68
2022/02/08 18:03:02;;;;;;;24.30;13.82;;;11.80;50.40;;;;;;5110385;28;20083;-70
2022/02/08 18:06:06;;;;;;;21.70;12.52;;;11.80;50.20;;;;;;5109765;28;20051;-71
2022/02/08 18:09:12;;;;;;;24.08;12.20;;;11.70;49.20;;;;;;5110401;28;20051;-71
2022/02/08 18:12:18;;;;;;;21.00;12.30;;;11.70;50.30;;;;;;5113757;28;20046;-72
2022/02/08 18:15:25;;;;;;;40.63;15.18;;;11.60;50.70;;;;;;5113959;28;20043;-72
2022/02/08 18:18:32;;;;;;;31.48;14.45;;;11.60;51.70;;;;;;5114060;28;20418;-74
2022/02/08 18:21:44;;;;;;;40.20;15.48;;;11.60;53.60;;;;;;5112957;28;20038;-72
2022/02/08 19:12:30;;;;;;;58.47;32.38;;;10.10;58.00;;;;;;5112480;28;20050;-81
2022/02/08 19:22:01;;;;;;;93.22;54.08;;;9.60;59.00;;;;;;5112518;28;20046;-82
2022/02/08 19:25:06;;;;;;;79.07;44.45;;;9.50;59.60;;;;;;5113014;28;20046;-82
2022/02/08 19:28:10;;;;;;;80.28;47.97;;;9.40;60.10;;;;;;5113145;28;20047;-82
2022/02/08 19:31:19;;;;;;;80.68;46.83;;;9.40;60.60;;;;;;5113367;28;20042;-82
2022/02/08 19:34:26;;;;;;;71.22;45.75;;;9.30;61.20;;;;;;5113046;28;20406;-82
2022/02/08 19:37:31;;;;;;;96.03;56.28;;;9.20;62.00;;;;;;5112912;28;20066;-82
2022/02/08 19:40:35;;;;;;;94.57;56.88;;;9.10;61.40;;;;;;5112726;28;20050;-82
2022/02/08 19:43:39;;;;;;;104.35;57.80;;;9.10;60.60;;;;;;5113422;28;20050;-82
2022/02/08 19:46:43;;;;;;;97.20;52.00;;;9.10;60.30;;;;;;5116630;28;20046;-82
2022/02/08 19:49:48;;;;;;;82.90;50.28;;;9.10;61.50;;;;;;5113131;28;20390;-82
2022/02/08 19:52:52;;;;;;;96.80;52.80;;;9.00;61.60;;;;;;5112304;28;20042;-83
2022/02/08 19:56:21;;;;;;;85.88;50.33;;;8.90;62.80;;;;;;5112805;28;20517;-83
2022/02/08 19:59:34;;;;;;;70.88;44.05;;;8.90;63.30;;;;;;5112268;28;20043;-82
2022/02/08 20:02:44;;;;;;;70.72;41.55;;;8.90;60.90;;;;;;5099906;28;20058;-83
2022/02/08 20:05:49;;;;;;;71.88;42.95;;;9.00;58.60;;;;;;5112358;28;20501;-82
2022/02/08 20:08:53;;;;;;;93.40;53.30;;;9.00;57.90;;;;;;5111532;28;20042;-82
2022/02/08 20:11:57;;;;;;;64.03;40.50;;;8.90;58.40;;;;;;5112425;28;20042;-82
2022/02/08 20:15:07;;;;;;;66.75;37.67;;;8.90;60.40;;;;;;5112325;28;20051;-81
2022/02/08 20:18:10;;;;;;;66.53;41.83;;;8.80;60.00;;;;;;5111862;28;20518;-82
2022/02/08 20:21:14;;;;;;;63.72;42.20;;;8.80;61.00;;;;;;5112102;28;20038;-82
2022/02/08 20:24:18;;;;;;;68.35;44.10;;;8.80;61.10;;;;;;5112183;28;20050;-83
2022/02/08 20:28:03;;;;;;;81.95;45.30;;;8.70;61.90;;;;;;5111957;28;20502;-83
2022/02/08 20:30:54;;;;;;;69.40;42.30;;;8.60;62.60;;;;;;5112075;28;20058;-82
2022/02/08 20:33:58;;;;;;;71.55;40.58;;;8.50;63.30;;;;;;5110482;28;20046;-82
2022/02/08 20:37:03;;;;;;;67.18;42.08;;;8.40;63.70;;;;;;5111508;28;20035;-83
2022/02/08 20:40:08;;;;;;;66.90;42.25;;;8.40;63.70;;;;;;5111849;28;20046;-83
2022/02/08 20:43:13;;;;;;;79.18;45.17;;;8.30;65.00;;;;;;5111574;28;20039;-82
2022/02/08 20:46:18;;;;;;;72.78;41.60;;;8.20;64.80;;;;;;5111476;28;20612;-82
2022/02/08 20:49:22;;;;;;;92.57;54.88;;;8.00;64.10;;;;;;5111945;28;20059;-82
2022/02/08 20:52:26;;;;;;;91.45;52.35;;;7.70;63.10;;;;;;5110637;28;20043;-83
2022/02/08 20:55:57;;;;;;;107.28;64.00;;;7.70;64.60;;;;;;5111740;28;20053;-83
2022/02/08 21:02:04;;;;;;;109.65;67.95;;;7.90;62.90;;;;;;5110701;28;20046;-83
2022/02/08 21:08:19;;;;;;;105.90;64.25;;;8.10;62.10;;;;;;5111427;28;20046;-82
2022/02/08 21:11:31;;;;;;;100.72;60.22;;;8.10;62.60;;;;;;5113079;28;20399;-83
2022/02/08 21:14:35;;;;;;;94.00;59.95;;;8.00;62.30;;;;;;5111646;28;20383;-83
2022/02/08 21:17:40;;;;;;;90.82;59.15;;;8.00;60.00;;;;;;5111458;28;20703;-83
2022/02/08 21:20:43;;;;;;;104.53;60.70;;;8.00;63.70;;;;;;5111306;28;20039;-83
2022/02/08 21:23:50;;;;;;;123.45;76.55;;;7.80;65.40;;;;;;5111394;28;20164;-83
2022/02/08 21:26:58;;;;;;;141.27;86.32;;;7.80;63.40;;;;;;5111367;28;20336;-83
2022/02/08 21:50:01;;;;;;;124.10;69.72;;;7.90;65.10;;;;;;5074063;28;20051;-82
2022/02/08 21:53:11;;;;;;;108.13;68.32;;;7.70;66.60;;;;;;5115029;28;20038;-83
2022/02/08 21:56:16;;;;;;;116.65;66.63;;;7.60;67.10;;;;;;5114468;28;20098;-83
2022/02/08 21:59:20;;;;;;;116.57;71.10;;;7.50;67.60;;;;;;5113808;28;20394;-82
2022/02/08 22:02:24;;;;;;;110.85;70.65;;;7.40;67.60;;;;;;5114980;28;20521;-82
2022/02/08 22:05:31;;;;;;;109.82;70.80;;;7.30;67.20;;;;;;5114992;28;20497;-83
2022/02/08 22:08:40;;;;;;;115.57;72.70;;;7.30;67.90;;;;;;5114964;28;20043;-82
2022/02/08 22:15:49;;;;;;;127.43;79.25;;;7.00;67.50;;;;;;5114009;28;20046;-82
2022/02/08 22:19:08;;;;;;;134.63;83.72;;;7.10;66.10;;;;;;5113749;28;20080;-83
2022/02/08 22:22:14;;;;;;;125.65;80.88;;;7.00;64.50;;;;;;5113386;28;20039;-82
2022/02/08 22:28:49;;;;;;;135.30;81.75;;;6.90;67.10;;;;;;5114218;28;20038;-82
2022/02/08 22:31:52;;;;;;;129.25;78.78;;;7.00;66.30;;;;;;5113994;28;20051;-82
2022/02/08 22:35:22;;;;;;;128.85;76.88;;;7.00;65.80;;;;;;5114765;28;20046;-82
2022/02/08 22:38:34;;;;;;;112.70;71.28;;;6.80;65.10;;;;;;5113101;28;20058;-82
2022/02/08 22:41:44;;;;;;;108.57;64.15;;;6.60;64.90;;;;;;5113882;28;20058;-82
2022/02/08 22:47:53;;;;;;;111.85;64.40;;;6.50;65.50;;;;;;5113538;28;20117;-82
2022/02/08 22:50:57;;;;;;;101.28;60.78;;;6.80;64.60;;;;;;5113861;28;20043;-82
2022/02/08 22:54:01;;;;;;;96.35;58.83;;;6.90;63.60;;;;;;5113919;28;20544;-82
2022/02/08 22:57:07;;;;;;;98.82;58.40;;;6.90;63.70;;;;;;5112338;28;20049;-82
2022/02/08 23:00:12;;;;;;;100.57;55.10;;;7.00;63.10;;;;;;5114225;28;20055;-82
2022/02/08 23:03:17;;;;;;;91.30;52.95;;;6.80;63.20;;;;;;5114058;28;20486;-82
2022/02/08 23:06:21;;;;;;;97.85;55.90;;;6.80;63.80;;;;;;5112842;28;20043;-82
2022/02/08 23:09:33;;;;;;;89.05;50.30;;;6.90;63.90;;;;;;5112846;28;20173;-82
2022/02/08 23:39:41;;;;;;;89.63;49.38;;;6.80;62.90;;;;;;5111772;28;20510;-82
2022/02/08 23:42:49;;;;;;;92.45;51.65;;;6.80;65.30;;;;;;5113033;28;20043;-82
2022/02/08 23:45:52;;;;;;;71.18;39.70;;;6.60;66.30;;;;;;5112153;28;20043;-81
2022/02/08 23:49:19;;;;;;;75.38;39.80;;;6.70;63.00;;;;;;5112465;28;20055;-82
2022/02/08 23:52:33;;;;;;;72.18;41.17;;;6.70;62.60;;;;;;5112918;28;20050;-82
2022/02/08 23:55:43;;;;;;;61.55;36.45;;;6.70;64.50;;;;;;5112090;28;20039;-82
2022/02/08 23:58:48;;;;;;;41.13;24.58;;;6.70;64.50;;;;;;5111603;28;20050;-82
